Terminal Aerodrome Forecast
Issued by NWS

Current Version | Previous Version | Text Only | Print | Product List | Glossary On
Versions: 1 2 3 4 5 6 7 8 9 10 11 12 13
000
FTUS46 KMTR 291700
TAFSJC
TAF
KSJC 291738Z 2918/3018 VRB03KT P6SM FEW006 SCT015 BKN150
     FM292000 32010KT P6SM BKN200
     FM300500 32005KT P6SM SCT200
     FM301000 15003KT P6SM BKN012
     FM301700 34003KT P6SM SCT015=

USA.gov is the U.S. government's official web portal to all federal, state and local government web resources and services.